sensor_id;sensor_type;location;lat;lon;timestamp;P1;durP1;ratioP1;P2;durP2;ratioP2
22270;SDS011;11304;53.520;10.104;2023-06-04T00:00:00;6.70;;;3.50;;
22270;SDS011;11304;53.520;10.104;2023-06-04T00:02:26;7.00;;;3.33;;
22270;SDS011;11304;53.520;10.104;2023-06-04T00:04:52;7.05;;;3.13;;
22270;SDS011;11304;53.520;10.104;2023-06-04T00:07:18;6.00;;;3.20;;
22270;SDS011;11304;53.520;10.104;2023-06-04T00:09:45;8.85;;;3.55;;
22270;SDS011;11304;53.520;10.104;2023-06-04T00:12:12;5.50;;;3.05;;
22270;SDS011;11304;53.520;10.104;2023-06-04T00:14:38;5.97;;;3.42;;
22270;SDS011;11304;53.520;10.104;2023-06-04T00:17:04;5.95;;;3.03;;
22270;SDS011;11304;53.520;10.104;2023-06-04T00:19:30;5.50;;;3.22;;
22270;SDS011;11304;53.520;10.104;2023-06-04T00:21:58;5.70;;;3.17;;
22270;SDS011;11304;53.520;10.104;2023-06-04T00:24:25;6.07;;;2.85;;
22270;SDS011;11304;53.520;10.104;2023-06-04T00:26:51;8.73;;;3.75;;
22270;SDS011;11304;53.520;10.104;2023-06-04T00:29:17;5.25;;;3.03;;
22270;SDS011;11304;53.520;10.104;2023-06-04T00:31:43;8.35;;;3.72;;
22270;SDS011;11304;53.520;10.104;2023-06-04T00:34:10;5.45;;;3.30;;
22270;SDS011;11304;53.520;10.104;2023-06-04T00:36:36;5.57;;;3.30;;
22270;SDS011;11304;53.520;10.104;2023-06-04T00:39:02;8.80;;;3.42;;
22270;SDS011;11304;53.520;10.104;2023-06-04T00:41:28;7.80;;;3.50;;
22270;SDS011;11304;53.520;10.104;2023-06-04T00:43:54;5.30;;;3.30;;
22270;SDS011;11304;53.520;10.104;2023-06-04T00:46:27;4.90;;;2.95;;
22270;SDS011;11304;53.520;10.104;2023-06-04T00:48:54;5.32;;;3.28;;
22270;SDS011;11304;53.520;10.104;2023-06-04T00:51:20;6.03;;;2.90;;
22270;SDS011;11304;53.520;10.104;2023-06-04T00:53:48;4.93;;;3.22;;
22270;SDS011;11304;53.520;10.104;2023-06-04T00:56:15;4.28;;;2.90;;
22270;SDS011;11304;53.520;10.104;2023-06-04T00:58:41;4.63;;;2.67;;
22270;SDS011;11304;53.520;10.104;2023-06-04T01:01:23;6.07;;;3.42;;
22270;SDS011;11304;53.520;10.104;2023-06-04T01:03:51;4.82;;;2.95;;
22270;SDS011;11304;53.520;10.104;2023-06-04T01:06:23;4.85;;;3.13;;
22270;SDS011;11304;53.520;10.104;2023-06-04T01:08:51;6.00;;;3.03;;
22270;SDS011;11304;53.520;10.104;2023-06-04T01:11:29;5.80;;;2.83;;
22270;SDS011;11304;53.520;10.104;2023-06-04T01:13:56;4.43;;;3.30;;
22270;SDS011;11304;53.520;10.104;2023-06-04T01:16:22;5.22;;;2.90;;
22270;SDS011;11304;53.520;10.104;2023-06-04T01:18:50;4.57;;;3.30;;
22270;SDS011;11304;53.520;10.104;2023-06-04T01:21:16;3.85;;;2.70;;
22270;SDS011;11304;53.520;10.104;2023-06-04T01:23:50;3.65;;;2.47;;
22270;SDS011;11304;53.520;10.104;2023-06-04T01:26:26;5.25;;;3.10;;
22270;SDS011;11304;53.520;10.104;2023-06-04T01:28:53;4.68;;;2.88;;
22270;SDS011;11304;53.520;10.104;2023-06-04T01:31:20;5.50;;;2.95;;
22270;SDS011;11304;53.520;10.104;2023-06-04T01:33:57;6.03;;;2.83;;
22270;SDS011;11304;53.520;10.104;2023-06-04T01:36:23;5.30;;;3.20;;
22270;SDS011;11304;53.520;10.104;2023-06-04T01:38:50;5.80;;;2.90;;
22270;SDS011;11304;53.520;10.104;2023-06-04T01:41:16;4.82;;;3.00;;
22270;SDS011;11304;53.520;10.104;2023-06-04T01:43:45;4.78;;;3.33;;
22270;SDS011;11304;53.520;10.104;2023-06-04T01:46:11;3.63;;;2.72;;
22270;SDS011;11304;53.520;10.104;2023-06-04T01:48:37;4.05;;;2.90;;
22270;SDS011;11304;53.520;10.104;2023-06-04T01:51:04;5.40;;;2.85;;
22270;SDS011;11304;53.520;10.104;2023-06-04T01:53:31;7.05;;;2.60;;
22270;SDS011;11304;53.520;10.104;2023-06-04T01:55:57;3.72;;;2.47;;
22270;SDS011;11304;53.520;10.104;2023-06-04T01:58:23;4.68;;;2.47;;
22270;SDS011;11304;53.520;10.104;2023-06-04T02:00:55;3.25;;;2.40;;
22270;SDS011;11304;53.520;10.104;2023-06-04T02:03:25;3.65;;;2.45;;
22270;SDS011;11304;53.520;10.104;2023-06-04T02:05:51;4.13;;;3.03;;
22270;SDS011;11304;53.520;10.104;2023-06-04T02:08:17;5.03;;;3.40;;
22270;SDS011;11304;53.520;10.104;2023-06-04T02:10:47;4.45;;;2.90;;
22270;SDS011;11304;53.520;10.104;2023-06-04T02:13:13;6.05;;;3.30;;
22270;SDS011;11304;53.520;10.104;2023-06-04T02:15:40;5.22;;;2.67;;
22270;SDS011;11304;53.520;10.104;2023-06-04T02:18:13;4.35;;;2.65;;
22270;SDS011;11304;53.520;10.104;2023-06-04T02:20:46;3.38;;;2.80;;
22270;SDS011;11304;53.520;10.104;2023-06-04T02:23:13;4.28;;;2.75;;
22270;SDS011;11304;53.520;10.104;2023-06-04T02:25:40;3.20;;;2.45;;
22270;SDS011;11304;53.520;10.104;2023-06-04T02:28:06;3.47;;;2.60;;
22270;SDS011;11304;53.520;10.104;2023-06-04T02:30:33;4.93;;;2.50;;
22270;SDS011;11304;53.520;10.104;2023-06-04T02:32:59;5.28;;;2.92;;
22270;SDS011;11304;53.520;10.104;2023-06-04T02:35:26;4.20;;;2.72;;
22270;SDS011;11304;53.520;10.104;2023-06-04T02:37:52;4.85;;;3.15;;
22270;SDS011;11304;53.520;10.104;2023-06-04T02:40:19;5.38;;;2.17;;
22270;SDS011;11304;53.520;10.104;2023-06-04T02:42:45;4.43;;;2.58;;
22270;SDS011;11304;53.520;10.104;2023-06-04T02:45:11;5.07;;;2.60;;
22270;SDS011;11304;53.520;10.104;2023-06-04T02:47:37;4.03;;;2.55;;
22270;SDS011;11304;53.520;10.104;2023-06-04T02:50:04;3.58;;;2.45;;
22270;SDS011;11304;53.520;10.104;2023-06-04T02:52:30;3.20;;;2.40;;
22270;SDS011;11304;53.520;10.104;2023-06-04T02:54:58;2.95;;;2.22;;
22270;SDS011;11304;53.520;10.104;2023-06-04T02:57:24;4.05;;;2.40;;
22270;SDS011;11304;53.520;10.104;2023-06-04T02:59:51;4.22;;;2.22;;
22270;SDS011;11304;53.520;10.104;2023-06-04T03:02:17;3.47;;;2.53;;
22270;SDS011;11304;53.520;10.104;2023-06-04T03:04:43;4.90;;;2.50;;
22270;SDS011;11304;53.520;10.104;2023-06-04T03:07:10;4.57;;;2.70;;
22270;SDS011;11304;53.520;10.104;2023-06-04T03:09:38;3.42;;;2.20;;
22270;SDS011;11304;53.520;10.104;2023-06-04T03:12:04;2.90;;;2.00;;
22270;SDS011;11304;53.520;10.104;2023-06-04T03:14:31;3.95;;;2.40;;
22270;SDS011;11304;53.520;10.104;2023-06-04T03:17:01;3.70;;;2.30;;
22270;SDS011;11304;53.520;10.104;2023-06-04T03:19:35;2.90;;;2.10;;
22270;SDS011;11304;53.520;10.104;2023-06-04T03:22:02;5.50;;;2.53;;
22270;SDS011;11304;53.520;10.104;2023-06-04T03:24:32;3.30;;;2.25;;
22270;SDS011;11304;53.520;10.104;2023-06-04T03:26:59;4.53;;;2.58;;
22270;SDS011;11304;53.520;10.104;2023-06-04T03:29:25;4.53;;;2.70;;
22270;SDS011;11304;53.520;10.104;2023-06-04T03:31:52;5.47;;;2.40;;
22270;SDS011;11304;53.520;10.104;2023-06-04T03:34:18;3.92;;;2.20;;
22270;SDS011;11304;53.520;10.104;2023-06-04T03:36:44;4.43;;;2.60;;
22270;SDS011;11304;53.520;10.104;2023-06-04T03:39:11;3.58;;;2.20;;
22270;SDS011;11304;53.520;10.104;2023-06-04T03:41:37;3.28;;;2.10;;
22270;SDS011;11304;53.520;10.104;2023-06-04T03:44:03;2.63;;;1.90;;
22270;SDS011;11304;53.520;10.104;2023-06-04T03:46:29;3.45;;;2.25;;
22270;SDS011;11304;53.520;10.104;2023-06-04T03:48:58;5.03;;;2.33;;
22270;SDS011;11304;53.520;10.104;2023-06-04T03:51:24;3.90;;;2.60;;
22270;SDS011;11304;53.520;10.104;2023-06-04T03:53:50;3.50;;;2.53;;
22270;SDS011;11304;53.520;10.104;2023-06-04T03:56:17;3.47;;;2.30;;
22270;SDS011;11304;53.520;10.104;2023-06-04T03:58:43;4.20;;;2.40;;
22270;SDS011;11304;53.520;10.104;2023-06-04T04:01:09;3.15;;;2.22;;
22270;SDS011;11304;53.520;10.104;2023-06-04T04:03:36;3.67;;;2.20;;
22270;SDS011;11304;53.520;10.104;2023-06-04T04:06:02;2.90;;;2.17;;
22270;SDS011;11304;53.520;10.104;2023-06-04T04:08:28;4.20;;;2.30;;
22270;SDS011;11304;53.520;10.104;2023-06-04T04:10:56;3.83;;;2.30;;
22270;SDS011;11304;53.520;10.104;2023-06-04T04:13:23;4.13;;;2.53;;
22270;SDS011;11304;53.520;10.104;2023-06-04T04:15:49;5.47;;;2.70;;
22270;SDS011;11304;53.520;10.104;2023-06-04T04:18:19;5.15;;;2.67;;
22270;SDS011;11304;53.520;10.104;2023-06-04T04:20:48;3.45;;;2.30;;
22270;SDS011;11304;53.520;10.104;2023-06-04T04:23:14;4.53;;;2.65;;
22270;SDS011;11304;53.520;10.104;2023-06-04T04:25:42;4.57;;;2.53;;
22270;SDS011;11304;53.520;10.104;2023-06-04T04:28:09;4.53;;;2.53;;
22270;SDS011;11304;53.520;10.104;2023-06-04T04:30:35;4.90;;;2.60;;
22270;SDS011;11304;53.520;10.104;2023-06-04T04:33:02;5.35;;;2.58;;
22270;SDS011;11304;53.520;10.104;2023-06-04T04:35:30;4.97;;;2.47;;
22270;SDS011;11304;53.520;10.104;2023-06-04T04:37:59;4.00;;;2.47;;
22270;SDS011;11304;53.520;10.104;2023-06-04T04:40:29;5.00;;;2.55;;
22270;SDS011;11304;53.520;10.104;2023-06-04T04:42:55;7.60;;;2.63;;
22270;SDS011;11304;53.520;10.104;2023-06-04T04:45:21;8.73;;;2.55;;
22270;SDS011;11304;53.520;10.104;2023-06-04T04:47:48;7.00;;;2.75;;
22270;SDS011;11304;53.520;10.104;2023-06-04T04:50:15;5.65;;;3.60;;
22270;SDS011;11304;53.520;10.104;2023-06-04T04:52:42;4.32;;;2.20;;
22270;SDS011;11304;53.520;10.104;2023-06-04T04:55:08;4.30;;;2.30;;
22270;SDS011;11304;53.520;10.104;2023-06-04T04:57:34;3.85;;;2.33;;
22270;SDS011;11304;53.520;10.104;2023-06-04T05:00:01;5.55;;;2.65;;
22270;SDS011;11304;53.520;10.104;2023-06-04T05:02:30;4.60;;;2.88;;
22270;SDS011;11304;53.520;10.104;2023-06-04T05:04:56;3.95;;;2.50;;
22270;SDS011;11304;53.520;10.104;2023-06-04T05:07:22;6.82;;;2.60;;
22270;SDS011;11304;53.520;10.104;2023-06-04T05:09:50;3.95;;;2.33;;
22270;SDS011;11304;53.520;10.104;2023-06-04T05:12:16;5.10;;;2.10;;
22270;SDS011;11304;53.520;10.104;2023-06-04T05:14:42;4.35;;;2.05;;
22270;SDS011;11304;53.520;10.104;2023-06-04T05:17:08;5.07;;;2.30;;
22270;SDS011;11304;53.520;10.104;2023-06-04T05:19:36;6.20;;;2.65;;
22270;SDS011;11304;53.520;10.104;2023-06-04T05:22:02;5.05;;;1.98;;
22270;SDS011;11304;53.520;10.104;2023-06-04T05:24:28;4.82;;;1.83;;
22270;SDS011;11304;53.520;10.104;2023-06-04T05:26:55;4.72;;;2.38;;
22270;SDS011;11304;53.520;10.104;2023-06-04T05:29:22;4.15;;;2.20;;
22270;SDS011;11304;53.520;10.104;2023-06-04T05:31:49;4.03;;;2.13;;
22270;SDS011;11304;53.520;10.104;2023-06-04T05:34:15;5.45;;;2.47;;
22270;SDS011;11304;53.520;10.104;2023-06-04T05:36:44;6.40;;;2.00;;
22270;SDS011;11304;53.520;10.104;2023-06-04T05:39:10;4.65;;;2.53;;
22270;SDS011;11304;53.520;10.104;2023-06-04T05:41:36;5.95;;;2.10;;
22270;SDS011;11304;53.520;10.104;2023-06-04T05:44:03;6.28;;;2.30;;
22270;SDS011;11304;53.520;10.104;2023-06-04T05:46:29;5.78;;;2.03;;
22270;SDS011;11304;53.520;10.104;2023-06-04T05:48:55;7.47;;;2.30;;
22270;SDS011;11304;53.520;10.104;2023-06-04T05:51:21;8.60;;;2.30;;
22270;SDS011;11304;53.520;10.104;2023-06-04T05:53:47;5.95;;;2.25;;
22270;SDS011;11304;53.520;10.104;2023-06-04T05:56:13;8.38;;;2.35;;
22270;SDS011;11304;53.520;10.104;2023-06-04T05:58:40;5.45;;;1.80;;
22270;SDS011;11304;53.520;10.104;2023-06-04T06:01:06;6.43;;;2.40;;
22270;SDS011;11304;53.520;10.104;2023-06-04T06:03:32;5.15;;;2.33;;
22270;SDS011;11304;53.520;10.104;2023-06-04T06:05:59;7.38;;;2.50;;
22270;SDS011;11304;53.520;10.104;2023-06-04T06:08:26;7.07;;;2.10;;
22270;SDS011;11304;53.520;10.104;2023-06-04T06:10:52;4.63;;;2.10;;
22270;SDS011;11304;53.520;10.104;2023-06-04T06:13:18;9.88;;;2.22;;
22270;SDS011;11304;53.520;10.104;2023-06-04T06:15:45;7.25;;;2.42;;
22270;SDS011;11304;53.520;10.104;2023-06-04T06:18:15;6.20;;;2.00;;
22270;SDS011;11304;53.520;10.104;2023-06-04T06:20:41;6.20;;;2.10;;
22270;SDS011;11304;53.520;10.104;2023-06-04T06:23:07;3.78;;;2.10;;
22270;SDS011;11304;53.520;10.104;2023-06-04T06:25:33;10.25;;;2.63;;
22270;SDS011;11304;53.520;10.104;2023-06-04T06:27:59;5.05;;;1.92;;
22270;SDS011;11304;53.520;10.104;2023-06-04T06:30:25;5.18;;;2.08;;
22270;SDS011;11304;53.520;10.104;2023-06-04T06:32:52;4.53;;;2.00;;
22270;SDS011;11304;53.520;10.104;2023-06-04T06:35:18;3.65;;;1.85;;
22270;SDS011;11304;53.520;10.104;2023-06-04T06:37:45;7.35;;;2.30;;
22270;SDS011;11304;53.520;10.104;2023-06-04T06:40:11;6.57;;;2.50;;
22270;SDS011;11304;53.520;10.104;2023-06-04T06:42:37;9.35;;;2.90;;
22270;SDS011;11304;53.520;10.104;2023-06-04T06:45:03;4.85;;;2.17;;
22270;SDS011;11304;53.520;10.104;2023-06-04T06:47:29;4.93;;;2.33;;
22270;SDS011;11304;53.520;10.104;2023-06-04T06:49:56;5.28;;;2.10;;
22270;SDS011;11304;53.520;10.104;2023-06-04T06:52:22;10.48;;;2.30;;
22270;SDS011;11304;53.520;10.104;2023-06-04T06:54:48;6.13;;;2.20;;
22270;SDS011;11304;53.520;10.104;2023-06-04T06:57:14;7.95;;;2.22;;
22270;SDS011;11304;53.520;10.104;2023-06-04T06:59:42;4.63;;;2.00;;
22270;SDS011;11304;53.520;10.104;2023-06-04T07:02:08;12.55;;;2.42;;
22270;SDS011;11304;53.520;10.104;2023-06-04T07:04:34;9.27;;;2.22;;
22270;SDS011;11304;53.520;10.104;2023-06-04T07:07:00;4.95;;;2.25;;
22270;SDS011;11304;53.520;10.104;2023-06-04T07:09:26;6.97;;;2.10;;
22270;SDS011;11304;53.520;10.104;2023-06-04T07:11:52;6.25;;;2.22;;
22270;SDS011;11304;53.520;10.104;2023-06-04T07:14:18;10.13;;;2.72;;
22270;SDS011;11304;53.520;10.104;2023-06-04T07:16:44;6.93;;;2.60;;
22270;SDS011;11304;53.520;10.104;2023-06-04T07:19:11;7.28;;;1.80;;
22270;SDS011;11304;53.520;10.104;2023-06-04T07:21:37;5.43;;;1.85;;
22270;SDS011;11304;53.520;10.104;2023-06-04T07:24:03;7.72;;;2.22;;
22270;SDS011;11304;53.520;10.104;2023-06-04T07:26:29;5.20;;;1.75;;
22270;SDS011;11304;53.520;10.104;2023-06-04T07:28:55;8.07;;;2.20;;
22270;SDS011;11304;53.520;10.104;2023-06-04T07:31:22;4.78;;;2.00;;
22270;SDS011;11304;53.520;10.104;2023-06-04T07:33:48;5.70;;;1.80;;
22270;SDS011;11304;53.520;10.104;2023-06-04T07:36:15;6.55;;;2.00;;
22270;SDS011;11304;53.520;10.104;2023-06-04T07:38:41;6.07;;;1.98;;
22270;SDS011;11304;53.520;10.104;2023-06-04T07:41:08;4.47;;;1.85;;
22270;SDS011;11304;53.520;10.104;2023-06-04T07:43:34;5.03;;;1.88;;
22270;SDS011;11304;53.520;10.104;2023-06-04T07:46:01;7.47;;;1.80;;
22270;SDS011;11304;53.520;10.104;2023-06-04T07:48:27;5.30;;;1.92;;
22270;SDS011;11304;53.520;10.104;2023-06-04T07:50:59;5.07;;;1.85;;
22270;SDS011;11304;53.520;10.104;2023-06-04T07:53:25;8.00;;;2.10;;
22270;SDS011;11304;53.520;10.104;2023-06-04T07:55:51;4.97;;;2.00;;
22270;SDS011;11304;53.520;10.104;2023-06-04T07:58:17;5.35;;;1.85;;
22270;SDS011;11304;53.520;10.104;2023-06-04T08:00:44;4.40;;;1.77;;
22270;SDS011;11304;53.520;10.104;2023-06-04T08:03:10;5.45;;;1.73;;
22270;SDS011;11304;53.520;10.104;2023-06-04T08:05:36;4.70;;;1.60;;
22270;SDS011;11304;53.520;10.104;2023-06-04T08:08:02;6.15;;;1.80;;
22270;SDS011;11304;53.520;10.104;2023-06-04T08:10:29;4.53;;;1.58;;
22270;SDS011;11304;53.520;10.104;2023-06-04T08:12:55;4.53;;;1.45;;
22270;SDS011;11304;53.520;10.104;2023-06-04T08:15:22;5.15;;;1.50;;
22270;SDS011;11304;53.520;10.104;2023-06-04T08:17:48;8.25;;;1.77;;
22270;SDS011;11304;53.520;10.104;2023-06-04T08:20:14;5.03;;;1.90;;
22270;SDS011;11304;53.520;10.104;2023-06-04T08:22:40;6.80;;;1.77;;
22270;SDS011;11304;53.520;10.104;2023-06-04T08:25:07;4.85;;;1.45;;
22270;SDS011;11304;53.520;10.104;2023-06-04T08:27:34;4.35;;;1.40;;
22270;SDS011;11304;53.520;10.104;2023-06-04T08:30:00;6.15;;;1.65;;
22270;SDS011;11304;53.520;10.104;2023-06-04T08:32:27;3.85;;;1.30;;
22270;SDS011;11304;53.520;10.104;2023-06-04T08:34:53;4.80;;;1.80;;
22270;SDS011;11304;53.520;10.104;2023-06-04T08:37:20;4.38;;;1.45;;
22270;SDS011;11304;53.520;10.104;2023-06-04T08:39:46;5.78;;;1.40;;
22270;SDS011;11304;53.520;10.104;2023-06-04T08:42:45;5.80;;;1.88;;
22270;SDS011;11304;53.520;10.104;2023-06-04T08:45:04;5.50;;;1.75;;
22270;SDS011;11304;53.520;10.104;2023-06-04T08:47:32;4.85;;;1.50;;
22270;SDS011;11304;53.520;10.104;2023-06-04T08:50:00;4.25;;;1.45;;
22270;SDS011;11304;53.520;10.104;2023-06-04T08:52:27;4.05;;;1.80;;
22270;SDS011;11304;53.520;10.104;2023-06-04T08:54:54;3.15;;;1.30;;
22270;SDS011;11304;53.520;10.104;2023-06-04T08:57:20;4.22;;;1.60;;
22270;SDS011;11304;53.520;10.104;2023-06-04T08:59:47;7.85;;;1.55;;
22270;SDS011;11304;53.520;10.104;2023-06-04T09:02:16;3.97;;;1.38;;
22270;SDS011;11304;53.520;10.104;2023-06-04T09:04:43;6.30;;;1.75;;
22270;SDS011;11304;53.520;10.104;2023-06-04T09:07:13;4.10;;;1.52;;
22270;SDS011;11304;53.520;10.104;2023-06-04T09:09:40;4.88;;;2.00;;
22270;SDS011;11304;53.520;10.104;2023-06-04T09:12:10;4.95;;;1.98;;
22270;SDS011;11304;53.520;10.104;2023-06-04T09:14:36;5.30;;;1.80;;
22270;SDS011;11304;53.520;10.104;2023-06-04T09:17:02;6.30;;;2.10;;
22270;SDS011;11304;53.520;10.104;2023-06-04T09:19:29;6.93;;;1.98;;
22270;SDS011;11304;53.520;10.104;2023-06-04T09:21:55;4.55;;;1.90;;
22270;SDS011;11304;53.520;10.104;2023-06-04T09:24:23;6.90;;;1.98;;
22270;SDS011;11304;53.520;10.104;2023-06-04T09:26:50;5.95;;;2.15;;
22270;SDS011;11304;53.520;10.104;2023-06-04T09:29:16;5.63;;;1.88;;
22270;SDS011;11304;53.520;10.104;2023-06-04T09:31:46;5.47;;;1.48;;
22270;SDS011;11304;53.520;10.104;2023-06-04T09:34:12;4.72;;;1.75;;
22270;SDS011;11304;53.520;10.104;2023-06-04T09:36:40;3.50;;;1.50;;
22270;SDS011;11304;53.520;10.104;2023-06-04T09:39:15;5.57;;;1.30;;
22270;SDS011;11304;53.520;10.104;2023-06-04T09:41:41;3.28;;;1.42;;
22270;SDS011;11304;53.520;10.104;2023-06-04T09:44:08;3.85;;;1.20;;
22270;SDS011;11304;53.520;10.104;2023-06-04T09:49:04;3.10;;;1.25;;
22270;SDS011;11304;53.520;10.104;2023-06-04T09:51:30;4.28;;;1.35;;
22270;SDS011;11304;53.520;10.104;2023-06-04T09:54:03;4.18;;;1.40;;
22270;SDS011;11304;53.520;10.104;2023-06-04T09:56:29;3.90;;;1.17;;
22270;SDS011;11304;53.520;10.104;2023-06-04T09:58:59;5.95;;;1.70;;
22270;SDS011;11304;53.520;10.104;2023-06-04T10:01:26;3.70;;;1.63;;
22270;SDS011;11304;53.520;10.104;2023-06-04T10:03:52;5.50;;;1.73;;
22270;SDS011;11304;53.520;10.104;2023-06-04T10:06:19;3.03;;;1.48;;
22270;SDS011;11304;53.520;10.104;2023-06-04T10:08:46;2.53;;;1.30;;
22270;SDS011;11304;53.520;10.104;2023-06-04T10:11:14;3.58;;;1.35;;
22270;SDS011;11304;53.520;10.104;2023-06-04T10:13:48;4.85;;;1.75;;
22270;SDS011;11304;53.520;10.104;2023-06-04T10:16:14;2.85;;;1.40;;
22270;SDS011;11304;53.520;10.104;2023-06-04T10:18:40;2.70;;;1.80;;
22270;SDS011;11304;53.520;10.104;2023-06-04T10:21:07;4.53;;;1.40;;
22270;SDS011;11304;53.520;10.104;2023-06-04T10:23:34;5.35;;;1.83;;
22270;SDS011;11304;53.520;10.104;2023-06-04T10:26:01;6.20;;;1.65;;
22270;SDS011;11304;53.520;10.104;2023-06-04T10:28:28;4.70;;;1.60;;
22270;SDS011;11304;53.520;10.104;2023-06-04T10:30:54;4.68;;;1.58;;
22270;SDS011;11304;53.520;10.104;2023-06-04T10:33:20;5.60;;;1.60;;
22270;SDS011;11304;53.520;10.104;2023-06-04T10:35:49;2.60;;;1.40;;
22270;SDS011;11304;53.520;10.104;2023-06-04T10:38:15;4.15;;;1.65;;
22270;SDS011;11304;53.520;10.104;2023-06-04T10:40:43;6.10;;;1.63;;
22270;SDS011;11304;53.520;10.104;2023-06-04T10:43:10;2.83;;;1.38;;
22270;SDS011;11304;53.520;10.104;2023-06-04T10:45:37;4.15;;;1.80;;
22270;SDS011;11304;53.520;10.104;2023-06-04T10:48:04;5.10;;;1.48;;
22270;SDS011;11304;53.520;10.104;2023-06-04T10:50:34;4.68;;;1.90;;
22270;SDS011;11304;53.520;10.104;2023-06-04T10:53:00;5.20;;;1.60;;
22270;SDS011;11304;53.520;10.104;2023-06-04T10:55:30;3.50;;;1.60;;
22270;SDS011;11304;53.520;10.104;2023-06-04T10:57:57;3.80;;;1.40;;
22270;SDS011;11304;53.520;10.104;2023-06-04T11:00:36;4.25;;;1.65;;
22270;SDS011;11304;53.520;10.104;2023-06-04T11:03:04;2.97;;;1.50;;
22270;SDS011;11304;53.520;10.104;2023-06-04T11:05:35;4.20;;;1.42;;
22270;SDS011;11304;53.520;10.104;2023-06-04T11:08:01;4.72;;;1.42;;
22270;SDS011;11304;53.520;10.104;2023-06-04T11:10:31;4.50;;;1.50;;
22270;SDS011;11304;53.520;10.104;2023-06-04T11:12:58;2.92;;;1.25;;
22270;SDS011;11304;53.520;10.104;2023-06-04T11:15:24;4.68;;;1.75;;
22270;SDS011;11304;53.520;10.104;2023-06-04T11:20:17;3.05;;;1.40;;
22270;SDS011;11304;53.520;10.104;2023-06-04T11:22:53;8.38;;;1.50;;
22270;SDS011;11304;53.520;10.104;2023-06-04T11:25:21;2.28;;;1.38;;
22270;SDS011;11304;53.520;10.104;2023-06-04T11:27:48;6.57;;;1.50;;
22270;SDS011;11304;53.520;10.104;2023-06-04T11:30:15;3.97;;;1.55;;
22270;SDS011;11304;53.520;10.104;2023-06-04T11:32:41;3.30;;;1.30;;
22270;SDS011;11304;53.520;10.104;2023-06-04T11:35:08;4.53;;;1.70;;
22270;SDS011;11304;53.520;10.104;2023-06-04T11:37:36;3.97;;;1.73;;
22270;SDS011;11304;53.520;10.104;2023-06-04T11:40:03;3.53;;;1.38;;
22270;SDS011;11304;53.520;10.104;2023-06-04T11:42:32;4.30;;;1.52;;
22270;SDS011;11304;53.520;10.104;2023-06-04T11:44:58;7.13;;;1.30;;
22270;SDS011;11304;53.520;10.104;2023-06-04T11:47:25;3.38;;;1.85;;
22270;SDS011;11304;53.520;10.104;2023-06-04T11:49:57;6.72;;;1.63;;
22270;SDS011;11304;53.520;10.104;2023-06-04T11:52:24;3.05;;;1.35;;
22270;SDS011;11304;53.520;10.104;2023-06-04T11:54:50;5.80;;;1.95;;
22270;SDS011;11304;53.520;10.104;2023-06-04T11:57:16;5.25;;;1.77;;
22270;SDS011;11304;53.520;10.104;2023-06-04T11:59:42;3.75;;;1.60;;
22270;SDS011;11304;53.520;10.104;2023-06-04T12:02:09;2.95;;;1.50;;
22270;SDS011;11304;53.520;10.104;2023-06-04T12:04:35;5.15;;;1.40;;
22270;SDS011;11304;53.520;10.104;2023-06-04T12:07:02;4.10;;;1.58;;
22270;SDS011;11304;53.520;10.104;2023-06-04T12:09:30;7.20;;;1.90;;
22270;SDS011;11304;53.520;10.104;2023-06-04T12:12:01;5.88;;;1.52;;
22270;SDS011;11304;53.520;10.104;2023-06-04T12:14:30;13.10;;;1.92;;
22270;SDS011;11304;53.520;10.104;2023-06-04T12:16:57;5.60;;;2.03;;
22270;SDS011;11304;53.520;10.104;2023-06-04T12:19:24;6.10;;;1.77;;
22270;SDS011;11304;53.520;10.104;2023-06-04T12:22:06;5.72;;;1.70;;
22270;SDS011;11304;53.520;10.104;2023-06-04T12:24:33;6.20;;;2.00;;
22270;SDS011;11304;53.520;10.104;2023-06-04T12:27:03;3.28;;;1.63;;
22270;SDS011;11304;53.520;10.104;2023-06-04T12:29:30;3.90;;;1.65;;
22270;SDS011;11304;53.520;10.104;2023-06-04T12:32:09;3.33;;;1.65;;
22270;SDS011;11304;53.520;10.104;2023-06-04T12:34:40;3.95;;;1.83;;
22270;SDS011;11304;53.520;10.104;2023-06-04T12:37:07;4.22;;;1.80;;
22270;SDS011;11304;53.520;10.104;2023-06-04T12:39:33;4.50;;;1.60;;
22270;SDS011;11304;53.520;10.104;2023-06-04T12:42:01;3.83;;;1.70;;
22270;SDS011;11304;53.520;10.104;2023-06-04T12:44:27;3.95;;;1.40;;
22270;SDS011;11304;53.520;10.104;2023-06-04T12:46:54;5.57;;;1.80;;
22270;SDS011;11304;53.520;10.104;2023-06-04T12:49:20;3.75;;;1.80;;
22270;SDS011;11304;53.520;10.104;2023-06-04T12:51:46;6.38;;;1.77;;
22270;SDS011;11304;53.520;10.104;2023-06-04T12:54:12;3.20;;;1.60;;
22270;SDS011;11304;53.520;10.104;2023-06-04T12:56:39;4.00;;;1.38;;
22270;SDS011;11304;53.520;10.104;2023-06-04T12:59:06;4.47;;;1.70;;
22270;SDS011;11304;53.520;10.104;2023-06-04T13:01:32;5.55;;;1.58;;
22270;SDS011;11304;53.520;10.104;2023-06-04T13:03:58;8.23;;;1.70;;
22270;SDS011;11304;53.520;10.104;2023-06-04T13:06:25;3.03;;;1.52;;
22270;SDS011;11304;53.520;10.104;2023-06-04T13:08:51;3.33;;;1.65;;
22270;SDS011;11304;53.520;10.104;2023-06-04T13:11:17;3.70;;;1.80;;
22270;SDS011;11304;53.520;10.104;2023-06-04T13:13:44;3.97;;;1.73;;
22270;SDS011;11304;53.520;10.104;2023-06-04T13:16:10;3.85;;;1.67;;
22270;SDS011;11304;53.520;10.104;2023-06-04T13:18:36;3.60;;;1.77;;
22270;SDS011;11304;53.520;10.104;2023-06-04T13:21:02;4.05;;;1.75;;
22270;SDS011;11304;53.520;10.104;2023-06-04T13:23:28;3.85;;;1.50;;
22270;SDS011;11304;53.520;10.104;2023-06-04T13:25:54;3.05;;;1.45;;
22270;SDS011;11304;53.520;10.104;2023-06-04T13:28:20;3.28;;;1.63;;
22270;SDS011;11304;53.520;10.104;2023-06-04T13:30:47;4.72;;;1.70;;
22270;SDS011;11304;53.520;10.104;2023-06-04T13:33:13;3.97;;;1.58;;
22270;SDS011;11304;53.520;10.104;2023-06-04T13:35:39;3.70;;;1.45;;
22270;SDS011;11304;53.520;10.104;2023-06-04T13:38:07;4.97;;;1.45;;
22270;SDS011;11304;53.520;10.104;2023-06-04T13:40:34;3.92;;;1.50;;
22270;SDS011;11304;53.520;10.104;2023-06-04T13:43:00;4.22;;;1.60;;
22270;SDS011;11304;53.520;10.104;2023-06-04T13:45:27;5.78;;;1.83;;
22270;SDS011;11304;53.520;10.104;2023-06-04T13:47:53;5.43;;;1.65;;
22270;SDS011;11304;53.520;10.104;2023-06-04T13:50:19;4.10;;;1.70;;
22270;SDS011;11304;53.520;10.104;2023-06-04T13:52:46;4.57;;;1.65;;
22270;SDS011;11304;53.520;10.104;2023-06-04T13:55:12;4.97;;;1.63;;
22270;SDS011;11304;53.520;10.104;2023-06-04T13:57:38;5.32;;;1.77;;
22270;SDS011;11304;53.520;10.104;2023-06-04T14:00:05;2.72;;;1.40;;
22270;SDS011;11304;53.520;10.104;2023-06-04T14:02:32;3.55;;;1.42;;
22270;SDS011;11304;53.520;10.104;2023-06-04T14:04:58;4.43;;;1.50;;
22270;SDS011;11304;53.520;10.104;2023-06-04T14:07:24;3.83;;;1.77;;
22270;SDS011;11304;53.520;10.104;2023-06-04T14:09:50;4.85;;;1.40;;
22270;SDS011;11304;53.520;10.104;2023-06-04T14:12:20;3.28;;;1.55;;
22270;SDS011;11304;53.520;10.104;2023-06-04T14:14:46;4.68;;;1.52;;
22270;SDS011;11304;53.520;10.104;2023-06-04T14:17:12;3.38;;;1.50;;
22270;SDS011;11304;53.520;10.104;2023-06-04T14:19:38;4.45;;;1.42;;
22270;SDS011;11304;53.520;10.104;2023-06-04T14:22:05;3.83;;;1.58;;
22270;SDS011;11304;53.520;10.104;2023-06-04T14:24:31;3.40;;;1.63;;
22270;SDS011;11304;53.520;10.104;2023-06-04T14:26:57;3.40;;;1.50;;
22270;SDS011;11304;53.520;10.104;2023-06-04T14:29:23;3.67;;;1.60;;
22270;SDS011;11304;53.520;10.104;2023-06-04T14:31:50;4.70;;;1.60;;
22270;SDS011;11304;53.520;10.104;2023-06-04T14:34:16;4.38;;;1.70;;
22270;SDS011;11304;53.520;10.104;2023-06-04T14:36:42;2.58;;;1.55;;